AIC419 VAAH-VERC
Flight info
| Callsign | AIC419 |
|---|---|
| Flight time | 1h 41m |
| Altitude | 37000 |
| Route | BODAR1A BODAR G590 BPL A791 ARIVO DCT DADSO |
| Aircraft | A21N/M-SDE2E3FGHIRWXY/LB1 |
Departure
| Time | 2026-05-06 19:27 |
|---|---|
| Airport | Sardar Vallabh Patel International Airport (VAAH) |
Arrival
| Time | 2026-05-06 21:09 |
|---|---|
| Airport | Birsa Munda Airport (VERC) |
| Time | Latitude | Longitude | Altitude | Speed | Heading |
|---|---|---|---|---|---|
| 2026-05-06 19:07 | 23.07291 | 72.61714 | 186 ft | 0 kts | 45° |
| 2026-05-06 19:20 | 23.07290 | 72.61713 | 186 ft | 1 kts | 45° |
| 2026-05-06 19:20 | 23.07279 | 72.61702 | 186 ft | 2 kts | 45° |
| 2026-05-06 19:21 | 23.07269 | 72.61691 | 186 ft | 2 kts | 45° |
| 2026-05-06 19:21 | 23.07261 | 72.61677 | 186 ft | 2 kts | 82° |
| 2026-05-06 19:21 | 23.07262 | 72.61660 | 186 ft | 2 kts | 113° |
| 2026-05-06 19:21 | 23.07267 | 72.61652 | 186 ft | 0 kts | 132° |
| 2026-05-06 19:22 | 23.07272 | 72.61646 | 186 ft | 0 kts | 134° |
| 2026-05-06 19:24 | 23.07265 | 72.61654 | 186 ft | 2 kts | 134° |
| 2026-05-06 19:24 | 23.07242 | 72.61681 | 186 ft | 6 kts | 132° |
| 2026-05-06 19:24 | 23.07205 | 72.61726 | 186 ft | 9 kts | 132° |
| 2026-05-06 19:24 | 23.07147 | 72.61794 | 186 ft | 14 kts | 134° |
| 2026-05-06 19:25 | 23.07068 | 72.61881 | 187 ft | 17 kts | 134° |
| 2026-05-06 19:25 | 23.06974 | 72.61987 | 189 ft | 20 kts | 133° |
| 2026-05-06 19:25 | 23.06893 | 72.62048 | 189 ft | 13 kts | 205° |
| 2026-05-06 19:25 | 23.06801 | 72.62028 | 189 ft | 16 kts | 137° |
| 2026-05-06 19:26 | 23.06710 | 72.62127 | 189 ft | 20 kts | 135° |
| 2026-05-06 19:26 | 23.06632 | 72.62260 | 189 ft | 20 kts | 84° |
| 2026-05-06 19:26 | 23.06672 | 72.62321 | 189 ft | 0 kts | 45° |
| 2026-05-06 19:26 | 23.06677 | 72.62326 | 189 ft | 9 kts | 45° |
| 2026-05-06 19:27 | 23.06934 | 72.62601 | 189 ft | 91 kts | 45° |
| 2026-05-06 19:27 | 23.07553 | 72.63261 | 188 ft | 156 kts | 46° |
| 2026-05-06 19:27 | 23.08382 | 72.64155 | 556 ft | 172 kts | 46° |
| 2026-05-06 19:27 | 23.09226 | 72.65114 | 1146 ft | 180 kts | 45° |
| 2026-05-06 19:28 | 23.10029 | 72.66148 | 1819 ft | 182 kts | 44° |
| 2026-05-06 19:28 | 23.11058 | 72.66905 | 2409 ft | 184 kts | 28° |
| 2026-05-06 19:28 | 23.11696 | 72.68090 | 3061 ft | 193 kts | 87° |
| 2026-05-06 19:28 | 23.11207 | 72.69385 | 3720 ft | 193 kts | 140° |
| 2026-05-06 19:29 | 23.10006 | 72.70113 | 4054 ft | 214 kts | 156° |
| 2026-05-06 19:29 | 23.08711 | 72.71062 | 4386 ft | 236 kts | 133° |
| 2026-05-06 19:29 | 23.07596 | 72.72475 | 4864 ft | 257 kts | 129° |
| 2026-05-06 19:29 | 23.06395 | 72.73998 | 5352 ft | 270 kts | 132° |
| 2026-05-06 19:30 | 23.05185 | 72.75387 | 5743 ft | 282 kts | 134° |
| 2026-05-06 19:30 | 23.03778 | 72.76889 | 6442 ft | 283 kts | 136° |
| 2026-05-06 19:30 | 23.02350 | 72.78360 | 7180 ft | 283 kts | 136° |
| 2026-05-06 19:30 | 23.00935 | 72.79829 | 7846 ft | 285 kts | 131° |
| 2026-05-06 19:31 | 22.99823 | 72.81599 | 8491 ft | 287 kts | 114° |
| 2026-05-06 19:31 | 22.99190 | 72.83643 | 9184 ft | 287 kts | 104° |
| 2026-05-06 19:31 | 22.98228 | 72.87858 | 10344 ft | 298 kts | 103° |
| 2026-05-06 19:32 | 22.97719 | 72.90101 | 10627 ft | 314 kts | 103° |
| 2026-05-06 19:32 | 22.97177 | 72.92456 | 10916 ft | 330 kts | 103° |
| 2026-05-06 19:32 | 22.96599 | 72.94940 | 11280 ft | 342 kts | 103° |
| 2026-05-06 19:32 | 22.96017 | 72.97431 | 11838 ft | 347 kts | 104° |
| 2026-05-06 19:33 | 22.95416 | 72.99999 | 12436 ft | 351 kts | 104° |
| 2026-05-06 19:33 | 22.94819 | 73.02544 | 13011 ft | 355 kts | 104° |
| 2026-05-06 19:33 | 22.94206 | 73.05152 | 13579 ft | 359 kts | 104° |
| 2026-05-06 19:33 | 22.93584 | 73.07797 | 14134 ft | 363 kts | 104° |
| 2026-05-06 19:34 | 22.92962 | 73.10438 | 14670 ft | 366 kts | 104° |
| 2026-05-06 19:34 | 22.92331 | 73.13116 | 15197 ft | 370 kts | 104° |
| 2026-05-06 19:34 | 22.91627 | 73.15834 | 15714 ft | 375 kts | 107° |
| 2026-05-06 19:34 | 22.90862 | 73.18505 | 16216 ft | 378 kts | 107° |
| 2026-05-06 19:35 | 22.90068 | 73.21243 | 16719 ft | 382 kts | 107° |
| 2026-05-06 19:35 | 22.89263 | 73.24011 | 17201 ft | 386 kts | 107° |
| 2026-05-06 19:35 | 22.88459 | 73.26782 | 17657 ft | 391 kts | 107° |
| 2026-05-06 19:35 | 22.87640 | 73.29601 | 18110 ft | 395 kts | 107° |
| 2026-05-06 19:36 | 22.86816 | 73.32439 | 18552 ft | 399 kts | 107° |
| 2026-05-06 19:36 | 22.85978 | 73.35327 | 19000 ft | 403 kts | 107° |
| 2026-05-06 19:36 | 22.85136 | 73.38228 | 19423 ft | 407 kts | 107° |
| 2026-05-06 19:36 | 22.84286 | 73.41156 | 19841 ft | 411 kts | 107° |
| 2026-05-06 19:37 | 22.83426 | 73.44112 | 20274 ft | 415 kts | 107° |
| 2026-05-06 19:37 | 22.82554 | 73.47106 | 20739 ft | 417 kts | 107° |
| 2026-05-06 19:37 | 22.81680 | 73.50108 | 21273 ft | 417 kts | 107° |
| 2026-05-06 19:37 | 22.80813 | 73.53077 | 21691 ft | 421 kts | 107° |
| 2026-05-06 19:38 | 22.79927 | 73.56113 | 22069 ft | 425 kts | 107° |
| 2026-05-06 19:38 | 22.79030 | 73.59188 | 22459 ft | 429 kts | 107° |
| 2026-05-06 19:38 | 22.78123 | 73.62291 | 22826 ft | 432 kts | 107° |
| 2026-05-06 19:38 | 22.77218 | 73.65385 | 23157 ft | 436 kts | 107° |
| 2026-05-06 19:39 | 22.76306 | 73.68506 | 23478 ft | 440 kts | 107° |
| 2026-05-06 19:39 | 22.75371 | 73.71700 | 23807 ft | 444 kts | 107° |
| 2026-05-06 19:39 | 22.74445 | 73.74862 | 24099 ft | 447 kts | 107° |
| 2026-05-06 19:39 | 22.73501 | 73.78082 | 24386 ft | 451 kts | 107° |
| 2026-05-06 19:40 | 22.72549 | 73.81325 | 24667 ft | 454 kts | 107° |
| 2026-05-06 19:40 | 22.71588 | 73.84598 | 24954 ft | 458 kts | 107° |
| 2026-05-06 19:40 | 22.70624 | 73.87877 | 25210 ft | 461 kts | 107° |
| 2026-05-06 19:40 | 22.69644 | 73.91209 | 25459 ft | 464 kts | 107° |
| 2026-05-06 19:41 | 22.68672 | 73.94513 | 25738 ft | 466 kts | 107° |
| 2026-05-06 19:41 | 22.67678 | 73.97888 | 26008 ft | 469 kts | 107° |
| 2026-05-06 19:41 | 22.66692 | 74.01234 | 26248 ft | 472 kts | 107° |
| 2026-05-06 19:41 | 22.65685 | 74.04648 | 26483 ft | 475 kts | 107° |
| 2026-05-06 19:42 | 22.64690 | 74.08018 | 26696 ft | 478 kts | 107° |
| 2026-05-06 19:42 | 22.63675 | 74.11454 | 26913 ft | 481 kts | 107° |
| 2026-05-06 19:42 | 22.62647 | 74.14928 | 27136 ft | 483 kts | 107° |
| 2026-05-06 19:42 | 22.61638 | 74.18398 | 27363 ft | 485 kts | 104° |
| 2026-05-06 19:43 | 22.60951 | 74.21957 | 27557 ft | 485 kts | 95° |
| 2026-05-06 19:43 | 22.60733 | 74.25545 | 27744 ft | 485 kts | 86° |
| 2026-05-06 19:43 | 22.60908 | 74.29211 | 27955 ft | 485 kts | 82° |
| 2026-05-06 19:43 | 22.61187 | 74.32811 | 28130 ft | 488 kts | 81° |
| 2026-05-06 19:44 | 22.61489 | 74.36487 | 28328 ft | 490 kts | 81° |
| 2026-05-06 19:44 | 22.61781 | 74.40141 | 28534 ft | 492 kts | 82° |
| 2026-05-06 19:44 | 22.62065 | 74.43855 | 28740 ft | 494 kts | 82° |
| 2026-05-06 19:44 | 22.62338 | 74.47537 | 28955 ft | 496 kts | 82° |
| 2026-05-06 19:45 | 22.62609 | 74.51276 | 29169 ft | 498 kts | 82° |
| 2026-05-06 19:45 | 22.62877 | 74.55035 | 29376 ft | 500 kts | 82° |
| 2026-05-06 19:45 | 22.63139 | 74.58742 | 29585 ft | 502 kts | 82° |
| 2026-05-06 19:45 | 22.63402 | 74.62506 | 29800 ft | 503 kts | 82° |
| 2026-05-06 19:46 | 22.63667 | 74.66290 | 30053 ft | 503 kts | 82° |
| 2026-05-06 19:46 | 22.63931 | 74.70064 | 30314 ft | 503 kts | 82° |
| 2026-05-06 19:46 | 22.64188 | 74.73811 | 30558 ft | 503 kts | 82° |
| 2026-05-06 19:46 | 22.64446 | 74.77554 | 30819 ft | 502 kts | 82° |
| 2026-05-06 19:47 | 22.64708 | 74.81336 | 31084 ft | 502 kts | 82° |
| 2026-05-06 19:47 | 22.64963 | 74.85055 | 31316 ft | 502 kts | 82° |
| 2026-05-06 19:47 | 22.65222 | 74.88851 | 31432 ft | 505 kts | 82° |
| 2026-05-06 19:47 | 22.65482 | 74.92638 | 31664 ft | 504 kts | 82° |
| 2026-05-06 19:48 | 22.65734 | 74.96378 | 31966 ft | 502 kts | 82° |
| 2026-05-06 19:48 | 22.65991 | 75.00171 | 32220 ft | 501 kts | 82° |
| 2026-05-06 19:48 | 22.66243 | 75.03893 | 32457 ft | 501 kts | 82° |
| 2026-05-06 19:48 | 22.66495 | 75.07626 | 32684 ft | 501 kts | 82° |
| 2026-05-06 19:49 | 22.66748 | 75.11408 | 32931 ft | 501 kts | 82° |
| 2026-05-06 19:49 | 22.66996 | 75.15126 | 33213 ft | 500 kts | 82° |
| 2026-05-06 19:49 | 22.67246 | 75.18868 | 33496 ft | 498 kts | 83° |
| 2026-05-06 19:49 | 22.67494 | 75.22609 | 33775 ft | 497 kts | 82° |
| 2026-05-06 19:50 | 22.67739 | 75.26337 | 34050 ft | 496 kts | 83° |
| 2026-05-06 19:50 | 22.67982 | 75.30023 | 34326 ft | 495 kts | 83° |
| 2026-05-06 19:50 | 22.68227 | 75.33746 | 34574 ft | 494 kts | 83° |
| 2026-05-06 19:50 | 22.68469 | 75.37455 | 34754 ft | 495 kts | 82° |
| 2026-05-06 19:51 | 22.68710 | 75.41119 | 34919 ft | 496 kts | 83° |
| 2026-05-06 19:51 | 22.68953 | 75.44842 | 35056 ft | 497 kts | 83° |
| 2026-05-06 19:51 | 22.69195 | 75.48598 | 35201 ft | 498 kts | 83° |
| 2026-05-06 19:51 | 22.69431 | 75.52290 | 35353 ft | 499 kts | 83° |
| 2026-05-06 19:52 | 22.69671 | 75.56024 | 35511 ft | 499 kts | 83° |
| 2026-05-06 19:52 | 22.69912 | 75.59806 | 35672 ft | 500 kts | 83° |
| 2026-05-06 19:52 | 22.70150 | 75.63554 | 35811 ft | 500 kts | 83° |
| 2026-05-06 19:52 | 22.70389 | 75.67301 | 35885 ft | 502 kts | 83° |
| 2026-05-06 19:53 | 22.71158 | 75.74757 | 35881 ft | 502 kts | 77° |
| 2026-05-06 19:53 | 22.72768 | 75.82101 | 35884 ft | 503 kts | 69° |
| 2026-05-06 19:54 | 22.75182 | 75.89201 | 35889 ft | 505 kts | 64° |
| 2026-05-06 19:54 | 22.77838 | 75.96245 | 35890 ft | 505 kts | 63° |
| 2026-05-06 19:55 | 22.80475 | 76.03284 | 35891 ft | 506 kts | 63° |
| 2026-05-06 19:55 | 22.83097 | 76.10345 | 35889 ft | 506 kts | 63° |
| 2026-05-06 19:56 | 22.85716 | 76.17426 | 35887 ft | 506 kts | 64° |
| 2026-05-06 19:56 | 22.88311 | 76.24454 | 35884 ft | 506 kts | 64° |
| 2026-05-06 19:57 | 22.90919 | 76.31525 | 35890 ft | 507 kts | 64° |
| 2026-05-06 19:57 | 22.93538 | 76.38645 | 35881 ft | 508 kts | 64° |
| 2026-05-06 19:58 | 22.96133 | 76.45712 | 35880 ft | 508 kts | 64° |
| 2026-05-06 19:58 | 22.98749 | 76.52844 | 35879 ft | 508 kts | 64° |
| 2026-05-06 19:59 | 23.01352 | 76.59951 | 35876 ft | 508 kts | 64° |
| 2026-05-06 19:59 | 23.03943 | 76.67039 | 35868 ft | 508 kts | 64° |
| 2026-05-06 20:00 | 23.06549 | 76.74179 | 35875 ft | 508 kts | 64° |
| 2026-05-06 20:00 | 23.09152 | 76.81319 | 35866 ft | 509 kts | 64° |
| 2026-05-06 20:01 | 23.11738 | 76.88436 | 35861 ft | 509 kts | 64° |
| 2026-05-06 20:01 | 23.14333 | 76.95589 | 35864 ft | 509 kts | 64° |
| 2026-05-06 20:02 | 23.16932 | 77.02698 | 35864 ft | 509 kts | 64° |
| 2026-05-06 20:02 | 23.19583 | 77.09862 | 35863 ft | 510 kts | 64° |
| 2026-05-06 20:03 | 23.22215 | 77.16997 | 35861 ft | 510 kts | 64° |
| 2026-05-06 20:03 | 23.24821 | 77.24102 | 35855 ft | 511 kts | 65° |
| 2026-05-06 20:04 | 23.26893 | 77.31514 | 35850 ft | 516 kts | 74° |
| 2026-05-06 20:04 | 23.27907 | 77.39253 | 35855 ft | 519 kts | 84° |
| 2026-05-06 20:05 | 23.27862 | 77.47104 | 35863 ft | 521 kts | 91° |
| 2026-05-06 20:05 | 23.27483 | 77.54968 | 35861 ft | 522 kts | 91° |
| 2026-05-06 20:06 | 23.27120 | 77.62828 | 35868 ft | 521 kts | 91° |
| 2026-05-06 20:06 | 23.26779 | 77.70657 | 35867 ft | 522 kts | 92° |
| 2026-05-06 20:07 | 23.26442 | 77.78496 | 35866 ft | 522 kts | 92° |
| 2026-05-06 20:07 | 23.26099 | 77.86400 | 35874 ft | 523 kts | 92° |
| 2026-05-06 20:08 | 23.25755 | 77.94237 | 35872 ft | 522 kts | 92° |
| 2026-05-06 20:08 | 23.25407 | 78.02127 | 35862 ft | 523 kts | 92° |
| 2026-05-06 20:09 | 23.25058 | 78.09972 | 35857 ft | 523 kts | 92° |
| 2026-05-06 20:09 | 23.24701 | 78.17852 | 35856 ft | 523 kts | 92° |
| 2026-05-06 20:10 | 23.24338 | 78.25748 | 35862 ft | 523 kts | 92° |
| 2026-05-06 20:10 | 23.23977 | 78.33567 | 35853 ft | 522 kts | 92° |
| 2026-05-06 20:11 | 23.23610 | 78.41437 | 35854 ft | 522 kts | 92° |
| 2026-05-06 20:11 | 23.23239 | 78.49285 | 35845 ft | 523 kts | 92° |
| 2026-05-06 20:12 | 23.22863 | 78.57172 | 35848 ft | 522 kts | 92° |
| 2026-05-06 20:12 | 23.22484 | 78.65041 | 35847 ft | 522 kts | 92° |
| 2026-05-06 20:13 | 23.22099 | 78.72901 | 35849 ft | 522 kts | 92° |
| 2026-05-06 20:13 | 23.21934 | 78.80775 | 35848 ft | 523 kts | 90° |
| 2026-05-06 20:14 | 23.21833 | 78.88622 | 35853 ft | 522 kts | 90° |
| 2026-05-06 20:14 | 23.21723 | 78.96506 | 35847 ft | 523 kts | 90° |
| 2026-05-06 20:15 | 23.21603 | 79.04376 | 35848 ft | 523 kts | 90° |
| 2026-05-06 20:15 | 23.21477 | 79.12251 | 35850 ft | 524 kts | 90° |
| 2026-05-06 20:16 | 23.21345 | 79.20167 | 35857 ft | 524 kts | 90° |
| 2026-05-06 20:16 | 23.21213 | 79.28026 | 35856 ft | 524 kts | 90° |
| 2026-05-06 20:17 | 23.21075 | 79.35962 | 35858 ft | 524 kts | 91° |
| 2026-05-06 20:17 | 23.20933 | 79.43838 | 35858 ft | 524 kts | 91° |
| 2026-05-06 20:18 | 23.20786 | 79.51759 | 35862 ft | 524 kts | 91° |
| 2026-05-06 20:18 | 23.20608 | 79.59619 | 35859 ft | 524 kts | 92° |
| 2026-05-06 20:19 | 23.20270 | 79.67539 | 35862 ft | 525 kts | 93° |
| 2026-05-06 20:19 | 23.19916 | 79.75418 | 35864 ft | 525 kts | 93° |
| 2026-05-06 20:20 | 23.19570 | 79.83350 | 35857 ft | 525 kts | 93° |
| 2026-05-06 20:20 | 23.19229 | 79.91228 | 35866 ft | 525 kts | 93° |
| 2026-05-06 20:21 | 23.18886 | 79.99110 | 35860 ft | 525 kts | 94° |
| 2026-05-06 20:21 | 23.18532 | 80.07027 | 35869 ft | 526 kts | 94° |
| 2026-05-06 20:22 | 23.18134 | 80.14971 | 35875 ft | 525 kts | 94° |
| 2026-05-06 20:22 | 23.17721 | 80.22846 | 35883 ft | 527 kts | 94° |
| 2026-05-06 20:23 | 23.17301 | 80.30793 | 35890 ft | 531 kts | 94° |
| 2026-05-06 20:23 | 23.16880 | 80.38808 | 35901 ft | 531 kts | 94° |
| 2026-05-06 20:24 | 23.16456 | 80.46807 | 35914 ft | 531 kts | 94° |
| 2026-05-06 20:24 | 23.16030 | 80.54752 | 35918 ft | 531 kts | 94° |
| 2026-05-06 20:25 | 23.15597 | 80.62736 | 35918 ft | 531 kts | 94° |
| 2026-05-06 20:25 | 23.15161 | 80.70742 | 35924 ft | 531 kts | 94° |
| 2026-05-06 20:26 | 23.14721 | 80.78730 | 35924 ft | 530 kts | 94° |
| 2026-05-06 20:26 | 23.14294 | 80.86682 | 35925 ft | 530 kts | 94° |
| 2026-05-06 20:27 | 23.13857 | 80.94665 | 35933 ft | 530 kts | 94° |
| 2026-05-06 20:27 | 23.13419 | 81.02641 | 35937 ft | 531 kts | 94° |
| 2026-05-06 20:28 | 23.12977 | 81.10604 | 35936 ft | 531 kts | 94° |
| 2026-05-06 20:28 | 23.12530 | 81.18607 | 35934 ft | 530 kts | 94° |
| 2026-05-06 20:29 | 23.12081 | 81.26547 | 35934 ft | 530 kts | 94° |
| 2026-05-06 20:29 | 23.11628 | 81.34514 | 35936 ft | 529 kts | 94° |
| 2026-05-06 20:30 | 23.10936 | 81.46489 | 35938 ft | 529 kts | 94° |
| 2026-05-06 20:31 | 23.10473 | 81.54411 | 35932 ft | 528 kts | 94° |
| 2026-05-06 20:31 | 23.10009 | 81.62334 | 35921 ft | 528 kts | 94° |
| 2026-05-06 20:32 | 23.09534 | 81.70297 | 35910 ft | 529 kts | 95° |
| 2026-05-06 20:32 | 23.09061 | 81.78225 | 35898 ft | 529 kts | 95° |
| 2026-05-06 20:33 | 23.08582 | 81.86155 | 35896 ft | 529 kts | 95° |
| 2026-05-06 20:33 | 23.08097 | 81.94134 | 35894 ft | 529 kts | 95° |
| 2026-05-06 20:34 | 23.07613 | 82.02036 | 35890 ft | 529 kts | 95° |
| 2026-05-06 20:34 | 23.07119 | 82.10010 | 35886 ft | 530 kts | 95° |
| 2026-05-06 20:35 | 23.06632 | 82.17973 | 35882 ft | 529 kts | 94° |
| 2026-05-06 20:35 | 23.06280 | 82.25909 | 35875 ft | 528 kts | 93° |
| 2026-05-06 20:36 | 23.05957 | 82.33856 | 35873 ft | 529 kts | 93° |
| 2026-05-06 20:36 | 23.05615 | 82.41831 | 35875 ft | 529 kts | 93° |
| 2026-05-06 20:37 | 23.05267 | 82.49750 | 35880 ft | 528 kts | 93° |
| 2026-05-06 20:37 | 23.04910 | 82.57673 | 35881 ft | 528 kts | 94° |
| 2026-05-06 20:38 | 23.04550 | 82.65624 | 35886 ft | 527 kts | 94° |
| 2026-05-06 20:38 | 23.04185 | 82.73547 | 35897 ft | 526 kts | 94° |
| 2026-05-06 20:39 | 23.03818 | 82.81403 | 35904 ft | 526 kts | 94° |
| 2026-05-06 20:39 | 23.03449 | 82.89310 | 35906 ft | 526 kts | 94° |
| 2026-05-06 20:40 | 23.03072 | 82.97227 | 35911 ft | 526 kts | 94° |
| 2026-05-06 20:40 | 23.02696 | 83.05104 | 35916 ft | 526 kts | 94° |
| 2026-05-06 20:41 | 23.02313 | 83.13026 | 35921 ft | 526 kts | 94° |
| 2026-05-06 20:41 | 23.01924 | 83.20947 | 35925 ft | 527 kts | 94° |
| 2026-05-06 20:42 | 23.01533 | 83.28820 | 35925 ft | 526 kts | 94° |
| 2026-05-06 20:42 | 23.01137 | 83.36764 | 35932 ft | 526 kts | 94° |
| 2026-05-06 20:43 | 23.00739 | 83.44654 | 35694 ft | 524 kts | 94° |
| 2026-05-06 20:43 | 23.00540 | 83.48589 | 35089 ft | 523 kts | 94° |
| 2026-05-06 20:43 | 23.00341 | 83.52514 | 34420 ft | 521 kts | 94° |
| 2026-05-06 20:43 | 23.00146 | 83.56380 | 33789 ft | 519 kts | 94° |
| 2026-05-06 20:44 | 22.99947 | 83.60306 | 33199 ft | 516 kts | 95° |
| 2026-05-06 20:44 | 22.99749 | 83.64124 | 32646 ft | 512 kts | 95° |
| 2026-05-06 20:44 | 22.99548 | 83.67994 | 32060 ft | 509 kts | 95° |
| 2026-05-06 20:44 | 22.99352 | 83.71764 | 31529 ft | 506 kts | 96° |
| 2026-05-06 20:45 | 22.99150 | 83.75582 | 31028 ft | 502 kts | 96° |
| 2026-05-06 20:45 | 22.98954 | 83.79314 | 30553 ft | 498 kts | 96° |
| 2026-05-06 20:45 | 22.98758 | 83.83034 | 30070 ft | 494 kts | 96° |
| 2026-05-06 20:45 | 22.98558 | 83.86750 | 29567 ft | 490 kts | 96° |
| 2026-05-06 20:46 | 22.98362 | 83.90380 | 29079 ft | 487 kts | 96° |
| 2026-05-06 20:46 | 22.98167 | 83.94016 | 28617 ft | 483 kts | 97° |
| 2026-05-06 20:46 | 22.97974 | 83.97632 | 28179 ft | 478 kts | 97° |
| 2026-05-06 20:46 | 22.97777 | 84.01218 | 27751 ft | 475 kts | 97° |
| 2026-05-06 20:47 | 22.97578 | 84.04793 | 27305 ft | 471 kts | 97° |
| 2026-05-06 20:47 | 22.97386 | 84.08299 | 26884 ft | 468 kts | 97° |
| 2026-05-06 20:47 | 22.97024 | 84.11733 | 26420 ft | 460 kts | 106° |
| 2026-05-06 20:47 | 22.96118 | 84.15012 | 25999 ft | 449 kts | 117° |
| 2026-05-06 20:48 | 22.94783 | 84.18021 | 25600 ft | 441 kts | 123° |
| 2026-05-06 20:48 | 22.93328 | 84.20943 | 25149 ft | 438 kts | 124° |
| 2026-05-06 20:48 | 22.91880 | 84.23805 | 24710 ft | 435 kts | 123° |
| 2026-05-06 20:48 | 22.90439 | 84.26684 | 24306 ft | 432 kts | 123° |
| 2026-05-06 20:49 | 22.89014 | 84.29559 | 23894 ft | 429 kts | 123° |
| 2026-05-06 20:49 | 22.87634 | 84.32367 | 23486 ft | 426 kts | 122° |
| 2026-05-06 20:49 | 22.86255 | 84.35181 | 23100 ft | 422 kts | 122° |
| 2026-05-06 20:49 | 22.84882 | 84.37988 | 22709 ft | 418 kts | 122° |
| 2026-05-06 20:50 | 22.83528 | 84.40753 | 22268 ft | 417 kts | 121° |
| 2026-05-06 20:50 | 22.82170 | 84.43533 | 21866 ft | 413 kts | 121° |
| 2026-05-06 20:50 | 22.80839 | 84.46252 | 21477 ft | 409 kts | 121° |
| 2026-05-06 20:50 | 22.79518 | 84.48952 | 21091 ft | 406 kts | 121° |
| 2026-05-06 20:51 | 22.78206 | 84.51629 | 20686 ft | 403 kts | 121° |
| 2026-05-06 20:51 | 22.76905 | 84.54303 | 20276 ft | 400 kts | 118° |
| 2026-05-06 20:51 | 22.76049 | 84.57163 | 19588 ft | 407 kts | 97° |
| 2026-05-06 20:51 | 22.76259 | 84.60239 | 18691 ft | 415 kts | 72° |
| 2026-05-06 20:52 | 22.77507 | 84.63036 | 17929 ft | 415 kts | 54° |
| 2026-05-06 20:52 | 22.79138 | 84.65545 | 17487 ft | 410 kts | 52° |
| 2026-05-06 20:52 | 22.80790 | 84.68048 | 17054 ft | 406 kts | 53° |
| 2026-05-06 20:52 | 22.82386 | 84.70575 | 16583 ft | 403 kts | 54° |
| 2026-05-06 20:53 | 22.83912 | 84.73099 | 16108 ft | 400 kts | 55° |
| 2026-05-06 20:53 | 22.85391 | 84.75621 | 15653 ft | 396 kts | 55° |
| 2026-05-06 20:53 | 22.86842 | 84.78141 | 15193 ft | 393 kts | 56° |
| 2026-05-06 20:53 | 22.88277 | 84.80657 | 14739 ft | 389 kts | 56° |
| 2026-05-06 20:54 | 22.89671 | 84.83118 | 14282 ft | 386 kts | 56° |
| 2026-05-06 20:54 | 22.91060 | 84.85583 | 13818 ft | 383 kts | 55° |
| 2026-05-06 20:54 | 22.92441 | 84.88033 | 13355 ft | 379 kts | 55° |
| 2026-05-06 20:54 | 22.93806 | 84.90458 | 12880 ft | 377 kts | 55° |
| 2026-05-06 20:55 | 22.95172 | 84.92883 | 12397 ft | 374 kts | 55° |
| 2026-05-06 20:55 | 22.96520 | 84.95279 | 11948 ft | 370 kts | 55° |
| 2026-05-06 20:55 | 22.97854 | 84.97651 | 11604 ft | 364 kts | 56° |
| 2026-05-06 20:55 | 22.99142 | 84.99944 | 11270 ft | 358 kts | 56° |
| 2026-05-06 20:56 | 23.00430 | 85.02243 | 10940 ft | 352 kts | 56° |
| 2026-05-06 20:56 | 23.01695 | 85.04499 | 10590 ft | 347 kts | 56° |
| 2026-05-06 20:56 | 23.02936 | 85.06710 | 10246 ft | 341 kts | 56° |
| 2026-05-06 20:56 | 23.04161 | 85.08894 | 9910 ft | 336 kts | 56° |
| 2026-05-06 20:57 | 23.05371 | 85.11053 | 9579 ft | 332 kts | 56° |
| 2026-05-06 20:57 | 23.06549 | 85.13157 | 9264 ft | 327 kts | 56° |
| 2026-05-06 20:57 | 23.07719 | 85.15251 | 8950 ft | 322 kts | 56° |
| 2026-05-06 20:57 | 23.08864 | 85.17298 | 8644 ft | 317 kts | 56° |
| 2026-05-06 20:58 | 23.10007 | 85.19344 | 8330 ft | 312 kts | 56° |
| 2026-05-06 20:58 | 23.11124 | 85.21343 | 8024 ft | 308 kts | 56° |
| 2026-05-06 20:58 | 23.12218 | 85.23300 | 7721 ft | 303 kts | 56° |
| 2026-05-06 20:58 | 23.13307 | 85.25251 | 7423 ft | 298 kts | 56° |
| 2026-05-06 20:59 | 23.14366 | 85.27147 | 7149 ft | 293 kts | 57° |
| 2026-05-06 20:59 | 23.15408 | 85.29013 | 6884 ft | 287 kts | 57° |
| 2026-05-06 20:59 | 23.16432 | 85.30850 | 6593 ft | 280 kts | 57° |
| 2026-05-06 20:59 | 23.17426 | 85.32636 | 6220 ft | 270 kts | 57° |
| 2026-05-06 21:00 | 23.18395 | 85.34371 | 5678 ft | 266 kts | 57° |
| 2026-05-06 21:00 | 23.19352 | 85.36083 | 5069 ft | 265 kts | 58° |
| 2026-05-06 21:00 | 23.20284 | 85.37756 | 4609 ft | 257 kts | 58° |
| 2026-05-06 21:00 | 23.21179 | 85.39365 | 4338 ft | 243 kts | 58° |
| 2026-05-06 21:01 | 23.22034 | 85.40899 | 4059 ft | 231 kts | 59° |
| 2026-05-06 21:01 | 23.22924 | 85.42338 | 3692 ft | 226 kts | 43° |
| 2026-05-06 21:01 | 23.24248 | 85.43105 | 3678 ft | 208 kts | 10° |
| 2026-05-06 21:01 | 23.25588 | 85.42912 | 3654 ft | 192 kts | 333° |
| 2026-05-06 21:02 | 23.26469 | 85.41951 | 3614 ft | 173 kts | 299° |
| 2026-05-06 21:02 | 23.26977 | 85.40781 | 3524 ft | 166 kts | 292° |
| 2026-05-06 21:02 | 23.27393 | 85.39669 | 3300 ft | 156 kts | 290° |
| 2026-05-06 21:02 | 23.27794 | 85.38567 | 3132 ft | 156 kts | 290° |
| 2026-05-06 21:03 | 23.28189 | 85.37469 | 2954 ft | 155 kts | 287° |
| 2026-05-06 21:03 | 23.28221 | 85.36331 | 2741 ft | 153 kts | 246° |
| 2026-05-06 21:03 | 23.27683 | 85.35319 | 2730 ft | 158 kts | 234° |
| 2026-05-06 21:03 | 23.27038 | 85.34349 | 3180 ft | 157 kts | 231° |
| 2026-05-06 21:04 | 23.26222 | 85.33630 | 3519 ft | 153 kts | 195° |
| 2026-05-06 21:04 | 23.25153 | 85.33669 | 3647 ft | 154 kts | 166° |
| 2026-05-06 21:04 | 23.24122 | 85.34014 | 3645 ft | 154 kts | 160° |
| 2026-05-06 21:04 | 23.23117 | 85.34398 | 3646 ft | 154 kts | 160° |
| 2026-05-06 21:05 | 23.22189 | 85.34968 | 3623 ft | 154 kts | 129° |
| 2026-05-06 21:05 | 23.21891 | 85.36058 | 3626 ft | 155 kts | 82° |
| 2026-05-06 21:05 | 23.22341 | 85.37103 | 3656 ft | 155 kts | 58° |
| 2026-05-06 21:05 | 23.22922 | 85.38097 | 3534 ft | 154 kts | 59° |
| 2026-05-06 21:06 | 23.23503 | 85.39087 | 3481 ft | 154 kts | 59° |
| 2026-05-06 21:06 | 23.24279 | 85.39849 | 3431 ft | 156 kts | 18° |
| 2026-05-06 21:06 | 23.25347 | 85.39770 | 3440 ft | 158 kts | 330° |
| 2026-05-06 21:06 | 23.26178 | 85.38981 | 3398 ft | 158 kts | 310° |
| 2026-05-06 21:07 | 23.26868 | 85.38049 | 3195 ft | 157 kts | 307° |
| 2026-05-06 21:07 | 23.27527 | 85.37102 | 2997 ft | 157 kts | 307° |
| 2026-05-06 21:07 | 23.28219 | 85.36192 | 2798 ft | 156 kts | 310° |
| 2026-05-06 21:07 | 23.28931 | 85.35304 | 2612 ft | 155 kts | 311° |
| 2026-05-06 21:08 | 23.29646 | 85.34422 | 2421 ft | 154 kts | 311° |
| 2026-05-06 21:08 | 23.30349 | 85.33555 | 2213 ft | 153 kts | 311° |
| 2026-05-06 21:08 | 23.31045 | 85.32705 | 2110 ft | 142 kts | 311° |
| 2026-05-06 21:08 | 23.31590 | 85.32036 | 2139 ft | 92 kts | 311° |
| 2026-05-06 21:09 | 23.31904 | 85.31648 | 2151 ft | 51 kts | 311° |
| 2026-05-06 21:09 | 23.32130 | 85.31371 | 2159 ft | 45 kts | 311° |
| 2026-05-06 21:09 | 23.32248 | 85.31249 | 2162 ft | 16 kts | 343° |
| 2026-05-06 21:09 | 23.32291 | 85.31184 | 2163 ft | 11 kts | 201° |
| 2026-05-06 21:10 | 23.32229 | 85.31247 | 2162 ft | 18 kts | 127° |
| 2026-05-06 21:10 | 23.32105 | 85.31401 | 2158 ft | 38 kts | 130° |
| 2026-05-06 21:10 | 23.31899 | 85.31655 | 2151 ft | 45 kts | 131° |
| 2026-05-06 21:10 | 23.31693 | 85.31911 | 2143 ft | 43 kts | 131° |
| 2026-05-06 21:11 | 23.31498 | 85.32149 | 2135 ft | 32 kts | 131° |
| 2026-05-06 21:11 | 23.31498 | 85.32252 | 2131 ft | 12 kts | 37° |
| 2026-05-06 21:11 | 23.31567 | 85.32318 | 2130 ft | 13 kts | 44° |
| 2026-05-06 21:11 | 23.31610 | 85.32361 | 2130 ft | 0 kts | 41° |
| 2026-05-06 21:12 | 23.31613 | 85.32364 | 2130 ft | 0 kts | 41° |
| 2026-05-06 21:12 | 23.31620 | 85.32371 | 2130 ft | 2 kts | 51° |
| 2026-05-06 21:12 | 23.31611 | 85.32407 | 2129 ft | 7 kts | 137° |
| 2026-05-06 21:12 | 23.31589 | 85.32454 | 2128 ft | 4 kts | 59° |
| 2026-05-06 21:13 | 23.31616 | 85.32472 | 2128 ft | 2 kts | 31° |
| 2026-05-06 21:13 | 23.31627 | 85.32484 | 2128 ft | 0 kts | 42° |
| 2026-05-06 21:13 | 23.31630 | 85.32488 | 2128 ft | 1 kts | 42° |
| 2026-05-06 21:13 | 23.31632 | 85.32490 | 2128 ft | 0 kts | 42° |